sensor_id;sensor_type;location;lat;lon;timestamp;P1;durP1;ratioP1;P2;durP2;ratioP2
13753;SDS011;6948;51.216;6.778;2022-07-23T00:01:35;21.47;;;16.60;;
13753;SDS011;6948;51.216;6.778;2022-07-23T00:04:01;21.87;;;16.73;;
13753;SDS011;6948;51.216;6.778;2022-07-23T00:06:27;21.53;;;17.27;;
13753;SDS011;6948;51.216;6.778;2022-07-23T00:08:53;20.90;;;17.83;;
13753;SDS011;6948;51.216;6.778;2022-07-23T00:11:19;20.63;;;17.27;;
13753;SDS011;6948;51.216;6.778;2022-07-23T00:13:47;21.80;;;17.33;;
13753;SDS011;6948;51.216;6.778;2022-07-23T00:16:13;20.70;;;16.57;;
13753;SDS011;6948;51.216;6.778;2022-07-23T00:18:39;21.33;;;17.10;;
13753;SDS011;6948;51.216;6.778;2022-07-23T00:21:05;19.97;;;17.00;;
13753;SDS011;6948;51.216;6.778;2022-07-23T00:23:31;20.97;;;16.77;;
13753;SDS011;6948;51.216;6.778;2022-07-23T00:25:57;19.53;;;16.60;;
13753;SDS011;6948;51.216;6.778;2022-07-23T00:28:23;20.33;;;16.93;;
13753;SDS011;6948;51.216;6.778;2022-07-23T00:30:49;21.27;;;16.90;;
13753;SDS011;6948;51.216;6.778;2022-07-23T00:33:15;19.67;;;16.50;;
13753;SDS011;6948;51.216;6.778;2022-07-23T00:35:41;20.60;;;15.83;;
13753;SDS011;6948;51.216;6.778;2022-07-23T00:38:08;21.47;;;16.90;;
13753;SDS011;6948;51.216;6.778;2022-07-23T00:40:34;22.00;;;16.23;;
13753;SDS011;6948;51.216;6.778;2022-07-23T00:43:01;22.00;;;16.83;;
13753;SDS011;6948;51.216;6.778;2022-07-23T00:45:27;18.57;;;15.77;;
13753;SDS011;6948;51.216;6.778;2022-07-23T00:47:53;20.90;;;16.70;;
13753;SDS011;6948;51.216;6.778;2022-07-23T00:50:19;21.47;;;16.80;;
13753;SDS011;6948;51.216;6.778;2022-07-23T00:52:45;21.10;;;17.07;;
13753;SDS011;6948;51.216;6.778;2022-07-23T00:55:11;20.37;;;16.50;;
13753;SDS011;6948;51.216;6.778;2022-07-23T00:57:38;19.93;;;15.80;;
13753;SDS011;6948;51.216;6.778;2022-07-23T01:00:04;16.93;;;15.10;;
13753;SDS011;6948;51.216;6.778;2022-07-23T01:02:31;19.97;;;15.47;;
13753;SDS011;6948;51.216;6.778;2022-07-23T01:04:57;19.00;;;14.63;;
13753;SDS011;6948;51.216;6.778;2022-07-23T01:07:23;19.60;;;15.37;;
13753;SDS011;6948;51.216;6.778;2022-07-23T01:09:50;20.07;;;15.13;;
13753;SDS011;6948;51.216;6.778;2022-07-23T01:12:16;18.53;;;13.73;;
13753;SDS011;6948;51.216;6.778;2022-07-23T01:14:43;16.70;;;14.97;;
13753;SDS011;6948;51.216;6.778;2022-07-23T01:17:09;16.93;;;13.83;;
13753;SDS011;6948;51.216;6.778;2022-07-23T01:19:35;19.13;;;14.47;;
13753;SDS011;6948;51.216;6.778;2022-07-23T01:22:02;18.33;;;14.27;;
13753;SDS011;6948;51.216;6.778;2022-07-23T01:24:28;16.13;;;14.00;;
13753;SDS011;6948;51.216;6.778;2022-07-23T01:26:54;18.40;;;14.77;;
13753;SDS011;6948;51.216;6.778;2022-07-23T01:29:20;17.00;;;13.33;;
13753;SDS011;6948;51.216;6.778;2022-07-23T01:31:46;17.83;;;13.50;;
13753;SDS011;6948;51.216;6.778;2022-07-23T01:34:12;17.23;;;14.07;;
13753;SDS011;6948;51.216;6.778;2022-07-23T01:36:38;16.43;;;13.13;;
13753;SDS011;6948;51.216;6.778;2022-07-23T01:39:05;15.83;;;13.60;;
13753;SDS011;6948;51.216;6.778;2022-07-23T01:41:35;14.70;;;12.23;;
13753;SDS011;6948;51.216;6.778;2022-07-23T01:44:01;15.47;;;13.10;;
13753;SDS011;6948;51.216;6.778;2022-07-23T01:46:27;14.50;;;13.00;;
13753;SDS011;6948;51.216;6.778;2022-07-23T01:48:53;18.27;;;13.43;;
13753;SDS011;6948;51.216;6.778;2022-07-23T01:51:19;18.13;;;13.77;;
13753;SDS011;6948;51.216;6.778;2022-07-23T01:53:47;17.27;;;14.13;;
13753;SDS011;6948;51.216;6.778;2022-07-23T01:56:13;18.00;;;14.00;;
13753;SDS011;6948;51.216;6.778;2022-07-23T01:58:40;18.20;;;14.27;;
13753;SDS011;6948;51.216;6.778;2022-07-23T02:01:06;16.93;;;14.20;;
13753;SDS011;6948;51.216;6.778;2022-07-23T02:03:32;17.10;;;14.33;;
13753;SDS011;6948;51.216;6.778;2022-07-23T02:05:58;17.70;;;14.37;;
13753;SDS011;6948;51.216;6.778;2022-07-23T02:08:24;18.10;;;15.33;;
13753;SDS011;6948;51.216;6.778;2022-07-23T02:10:50;19.33;;;14.57;;
13753;SDS011;6948;51.216;6.778;2022-07-23T02:13:16;19.00;;;15.10;;
13753;SDS011;6948;51.216;6.778;2022-07-23T02:15:42;16.83;;;14.10;;
13753;SDS011;6948;51.216;6.778;2022-07-23T02:18:08;18.87;;;14.43;;
13753;SDS011;6948;51.216;6.778;2022-07-23T02:20:34;20.90;;;14.57;;
13753;SDS011;6948;51.216;6.778;2022-07-23T02:23:03;16.37;;;13.70;;
13753;SDS011;6948;51.216;6.778;2022-07-23T02:25:30;17.43;;;13.73;;
13753;SDS011;6948;51.216;6.778;2022-07-23T02:27:56;16.20;;;13.93;;
13753;SDS011;6948;51.216;6.778;2022-07-23T02:30:22;18.93;;;13.90;;
13753;SDS011;6948;51.216;6.778;2022-07-23T02:32:48;17.13;;;14.60;;
13753;SDS011;6948;51.216;6.778;2022-07-23T02:35:14;16.90;;;14.17;;
13753;SDS011;6948;51.216;6.778;2022-07-23T02:37:40;18.73;;;13.80;;
13753;SDS011;6948;51.216;6.778;2022-07-23T02:40:06;18.67;;;14.23;;
13753;SDS011;6948;51.216;6.778;2022-07-23T02:42:33;17.00;;;14.13;;
13753;SDS011;6948;51.216;6.778;2022-07-23T02:44:59;17.37;;;13.63;;
13753;SDS011;6948;51.216;6.778;2022-07-23T02:47:25;20.70;;;13.40;;
13753;SDS011;6948;51.216;6.778;2022-07-23T02:49:51;18.10;;;13.77;;
13753;SDS011;6948;51.216;6.778;2022-07-23T02:52:17;18.57;;;14.37;;
13753;SDS011;6948;51.216;6.778;2022-07-23T02:54:43;20.73;;;14.90;;
13753;SDS011;6948;51.216;6.778;2022-07-23T02:57:09;18.10;;;15.37;;
13753;SDS011;6948;51.216;6.778;2022-07-23T02:59:35;18.97;;;14.73;;
13753;SDS011;6948;51.216;6.778;2022-07-23T03:02:01;18.87;;;15.27;;
13753;SDS011;6948;51.216;6.778;2022-07-23T03:04:27;17.87;;;14.60;;
13753;SDS011;6948;51.216;6.778;2022-07-23T03:06:53;16.93;;;14.17;;
13753;SDS011;6948;51.216;6.778;2022-07-23T03:09:19;16.13;;;13.60;;
13753;SDS011;6948;51.216;6.778;2022-07-23T03:11:45;17.37;;;13.83;;
13753;SDS011;6948;51.216;6.778;2022-07-23T03:14:11;16.83;;;13.87;;
13753;SDS011;6948;51.216;6.778;2022-07-23T03:16:38;17.23;;;13.77;;
13753;SDS011;6948;51.216;6.778;2022-07-23T03:19:04;19.83;;;14.97;;
13753;SDS011;6948;51.216;6.778;2022-07-23T03:21:31;18.80;;;14.47;;
13753;SDS011;6948;51.216;6.778;2022-07-23T03:23:57;18.83;;;14.20;;
13753;SDS011;6948;51.216;6.778;2022-07-23T03:26:23;20.97;;;15.60;;
13753;SDS011;6948;51.216;6.778;2022-07-23T03:28:50;16.63;;;14.63;;
13753;SDS011;6948;51.216;6.778;2022-07-23T03:31:17;19.07;;;15.03;;
13753;SDS011;6948;51.216;6.778;2022-07-23T03:33:43;20.93;;;15.33;;
13753;SDS011;6948;51.216;6.778;2022-07-23T03:36:09;20.10;;;16.07;;
13753;SDS011;6948;51.216;6.778;2022-07-23T03:38:35;18.63;;;16.10;;
13753;SDS011;6948;51.216;6.778;2022-07-23T03:41:03;19.77;;;16.60;;
13753;SDS011;6948;51.216;6.778;2022-07-23T03:43:29;20.20;;;16.03;;
13753;SDS011;6948;51.216;6.778;2022-07-23T03:45:55;18.53;;;15.40;;
13753;SDS011;6948;51.216;6.778;2022-07-23T03:48:24;21.27;;;16.77;;
13753;SDS011;6948;51.216;6.778;2022-07-23T03:50:50;23.50;;;16.77;;
13753;SDS011;6948;51.216;6.778;2022-07-23T03:53:16;18.57;;;15.37;;
13753;SDS011;6948;51.216;6.778;2022-07-23T03:55:42;18.93;;;15.43;;
13753;SDS011;6948;51.216;6.778;2022-07-23T03:58:11;17.90;;;15.73;;
13753;SDS011;6948;51.216;6.778;2022-07-23T04:00:37;19.47;;;16.63;;
13753;SDS011;6948;51.216;6.778;2022-07-23T04:03:03;18.87;;;16.43;;
13753;SDS011;6948;51.216;6.778;2022-07-23T04:05:29;19.23;;;16.27;;
13753;SDS011;6948;51.216;6.778;2022-07-23T04:07:55;20.63;;;17.23;;
13753;SDS011;6948;51.216;6.778;2022-07-23T04:10:21;20.33;;;15.70;;
13753;SDS011;6948;51.216;6.778;2022-07-23T04:12:47;21.90;;;17.27;;
13753;SDS011;6948;51.216;6.778;2022-07-23T04:15:13;19.87;;;16.30;;
13753;SDS011;6948;51.216;6.778;2022-07-23T04:17:39;20.80;;;15.80;;
13753;SDS011;6948;51.216;6.778;2022-07-23T04:20:05;21.57;;;17.00;;
13753;SDS011;6948;51.216;6.778;2022-07-23T04:22:31;21.67;;;16.17;;
13753;SDS011;6948;51.216;6.778;2022-07-23T04:24:57;17.80;;;15.90;;
13753;SDS011;6948;51.216;6.778;2022-07-23T04:27:23;17.47;;;14.77;;
13753;SDS011;6948;51.216;6.778;2022-07-23T04:29:49;21.33;;;15.57;;
13753;SDS011;6948;51.216;6.778;2022-07-23T04:32:15;19.90;;;14.57;;
13753;SDS011;6948;51.216;6.778;2022-07-23T04:34:41;16.00;;;14.30;;
13753;SDS011;6948;51.216;6.778;2022-07-23T04:37:07;16.30;;;14.53;;
13753;SDS011;6948;51.216;6.778;2022-07-23T04:39:33;20.07;;;14.43;;
13753;SDS011;6948;51.216;6.778;2022-07-23T04:41:59;16.20;;;13.80;;
13753;SDS011;6948;51.216;6.778;2022-07-23T04:44:25;17.13;;;13.87;;
13753;SDS011;6948;51.216;6.778;2022-07-23T04:46:51;17.17;;;14.60;;
13753;SDS011;6948;51.216;6.778;2022-07-23T04:49:17;15.67;;;13.43;;
13753;SDS011;6948;51.216;6.778;2022-07-23T04:51:43;15.23;;;13.50;;
13753;SDS011;6948;51.216;6.778;2022-07-23T04:54:09;15.60;;;13.33;;
13753;SDS011;6948;51.216;6.778;2022-07-23T04:56:35;17.40;;;13.23;;
13753;SDS011;6948;51.216;6.778;2022-07-23T04:59:01;15.07;;;13.57;;
13753;SDS011;6948;51.216;6.778;2022-07-23T05:01:27;15.80;;;12.67;;
13753;SDS011;6948;51.216;6.778;2022-07-23T05:03:53;14.33;;;12.47;;
13753;SDS011;6948;51.216;6.778;2022-07-23T05:06:19;14.30;;;12.57;;
13753;SDS011;6948;51.216;6.778;2022-07-23T05:08:45;16.73;;;14.10;;
13753;SDS011;6948;51.216;6.778;2022-07-23T05:11:11;14.50;;;12.70;;
13753;SDS011;6948;51.216;6.778;2022-07-23T05:13:37;15.03;;;12.57;;
13753;SDS011;6948;51.216;6.778;2022-07-23T05:16:03;16.23;;;12.97;;
13753;SDS011;6948;51.216;6.778;2022-07-23T05:18:30;15.97;;;12.50;;
13753;SDS011;6948;51.216;6.778;2022-07-23T05:20:56;15.67;;;12.03;;
13753;SDS011;6948;51.216;6.778;2022-07-23T05:23:22;16.83;;;13.17;;
13753;SDS011;6948;51.216;6.778;2022-07-23T05:25:48;14.27;;;12.00;;
13753;SDS011;6948;51.216;6.778;2022-07-23T05:28:14;14.17;;;12.30;;
13753;SDS011;6948;51.216;6.778;2022-07-23T05:30:40;16.33;;;13.63;;
13753;SDS011;6948;51.216;6.778;2022-07-23T05:33:06;16.83;;;13.63;;
13753;SDS011;6948;51.216;6.778;2022-07-23T05:35:33;15.20;;;13.37;;
13753;SDS011;6948;51.216;6.778;2022-07-23T05:37:59;15.33;;;13.20;;
13753;SDS011;6948;51.216;6.778;2022-07-23T05:40:25;18.70;;;14.30;;
13753;SDS011;6948;51.216;6.778;2022-07-23T05:42:51;15.77;;;14.10;;
13753;SDS011;6948;51.216;6.778;2022-07-23T05:45:17;16.57;;;13.63;;
13753;SDS011;6948;51.216;6.778;2022-07-23T05:47:44;15.23;;;12.97;;
13753;SDS011;6948;51.216;6.778;2022-07-23T05:50:10;16.27;;;13.47;;
13753;SDS011;6948;51.216;6.778;2022-07-23T05:52:37;14.20;;;12.70;;
13753;SDS011;6948;51.216;6.778;2022-07-23T05:55:03;15.90;;;12.90;;
13753;SDS011;6948;51.216;6.778;2022-07-23T05:57:29;13.10;;;11.80;;
13753;SDS011;6948;51.216;6.778;2022-07-23T05:59:55;14.40;;;12.13;;
13753;SDS011;6948;51.216;6.778;2022-07-23T06:02:21;15.03;;;13.17;;
13753;SDS011;6948;51.216;6.778;2022-07-23T06:04:47;16.70;;;13.57;;
13753;SDS011;6948;51.216;6.778;2022-07-23T06:07:13;14.93;;;13.33;;
13753;SDS011;6948;51.216;6.778;2022-07-23T06:09:39;17.80;;;13.37;;
13753;SDS011;6948;51.216;6.778;2022-07-23T06:12:05;14.97;;;13.37;;
13753;SDS011;6948;51.216;6.778;2022-07-23T06:14:31;18.17;;;14.60;;
13753;SDS011;6948;51.216;6.778;2022-07-23T06:16:57;18.67;;;14.23;;
13753;SDS011;6948;51.216;6.778;2022-07-23T06:19:24;15.90;;;14.20;;
13753;SDS011;6948;51.216;6.778;2022-07-23T06:21:50;16.60;;;14.83;;
13753;SDS011;6948;51.216;6.778;2022-07-23T06:24:16;16.70;;;14.93;;
13753;SDS011;6948;51.216;6.778;2022-07-23T06:26:42;17.13;;;14.90;;
13753;SDS011;6948;51.216;6.778;2022-07-23T06:29:08;16.37;;;14.30;;
13753;SDS011;6948;51.216;6.778;2022-07-23T06:31:34;22.50;;;16.97;;
13753;SDS011;6948;51.216;6.778;2022-07-23T06:34:00;22.93;;;18.23;;
13753;SDS011;6948;51.216;6.778;2022-07-23T06:36:26;20.67;;;17.70;;
13753;SDS011;6948;51.216;6.778;2022-07-23T06:38:52;20.00;;;17.70;;
13753;SDS011;6948;51.216;6.778;2022-07-23T06:41:18;19.97;;;16.87;;
13753;SDS011;6948;51.216;6.778;2022-07-23T06:43:44;22.13;;;16.80;;
13753;SDS011;6948;51.216;6.778;2022-07-23T06:46:10;19.03;;;16.40;;
13753;SDS011;6948;51.216;6.778;2022-07-23T06:48:36;26.30;;;18.30;;
13753;SDS011;6948;51.216;6.778;2022-07-23T06:51:02;21.83;;;17.47;;
13753;SDS011;6948;51.216;6.778;2022-07-23T06:53:28;24.53;;;19.57;;
13753;SDS011;6948;51.216;6.778;2022-07-23T06:55:54;22.10;;;18.10;;
13753;SDS011;6948;51.216;6.778;2022-07-23T06:58:20;20.93;;;17.63;;
13753;SDS011;6948;51.216;6.778;2022-07-23T07:00:46;20.53;;;17.40;;
13753;SDS011;6948;51.216;6.778;2022-07-23T07:03:13;23.10;;;17.53;;
13753;SDS011;6948;51.216;6.778;2022-07-23T07:05:39;21.47;;;17.33;;
13753;SDS011;6948;51.216;6.778;2022-07-23T07:08:05;20.60;;;16.07;;
13753;SDS011;6948;51.216;6.778;2022-07-23T07:10:31;18.90;;;16.37;;
13753;SDS011;6948;51.216;6.778;2022-07-23T07:12:58;17.53;;;14.80;;
13753;SDS011;6948;51.216;6.778;2022-07-23T07:15:24;17.97;;;14.50;;
13753;SDS011;6948;51.216;6.778;2022-07-23T07:17:50;16.37;;;14.67;;
13753;SDS011;6948;51.216;6.778;2022-07-23T07:20:16;16.30;;;14.20;;
13753;SDS011;6948;51.216;6.778;2022-07-23T07:22:42;18.50;;;14.67;;
13753;SDS011;6948;51.216;6.778;2022-07-23T07:25:08;17.30;;;13.00;;
13753;SDS011;6948;51.216;6.778;2022-07-23T07:27:34;16.47;;;13.60;;
13753;SDS011;6948;51.216;6.778;2022-07-23T07:30:00;19.47;;;13.87;;
13753;SDS011;6948;51.216;6.778;2022-07-23T07:32:26;19.87;;;15.07;;
13753;SDS011;6948;51.216;6.778;2022-07-23T07:34:52;17.20;;;15.10;;
13753;SDS011;6948;51.216;6.778;2022-07-23T07:37:18;19.00;;;14.80;;
13753;SDS011;6948;51.216;6.778;2022-07-23T07:39:44;16.80;;;14.83;;
13753;SDS011;6948;51.216;6.778;2022-07-23T07:42:10;18.60;;;15.63;;
13753;SDS011;6948;51.216;6.778;2022-07-23T07:44:36;21.00;;;16.67;;
13753;SDS011;6948;51.216;6.778;2022-07-23T07:47:02;20.93;;;16.87;;
13753;SDS011;6948;51.216;6.778;2022-07-23T07:49:28;21.10;;;17.10;;
13753;SDS011;6948;51.216;6.778;2022-07-23T07:51:54;20.33;;;16.20;;
13753;SDS011;6948;51.216;6.778;2022-07-23T07:54:20;19.57;;;17.17;;
13753;SDS011;6948;51.216;6.778;2022-07-23T07:56:46;20.87;;;15.83;;
13753;SDS011;6948;51.216;6.778;2022-07-23T07:59:13;18.87;;;14.73;;
13753;SDS011;6948;51.216;6.778;2022-07-23T08:01:39;21.13;;;16.17;;
13753;SDS011;6948;51.216;6.778;2022-07-23T08:04:05;17.27;;;14.67;;
13753;SDS011;6948;51.216;6.778;2022-07-23T08:06:32;18.20;;;15.70;;
13753;SDS011;6948;51.216;6.778;2022-07-23T08:08:58;20.67;;;18.57;;
13753;SDS011;6948;51.216;6.778;2022-07-23T08:11:24;19.63;;;17.40;;
13753;SDS011;6948;51.216;6.778;2022-07-23T08:13:50;20.77;;;17.03;;
13753;SDS011;6948;51.216;6.778;2022-07-23T08:16:16;19.30;;;16.70;;
13753;SDS011;6948;51.216;6.778;2022-07-23T08:18:42;21.90;;;16.80;;
13753;SDS011;6948;51.216;6.778;2022-07-23T08:21:08;23.13;;;20.20;;
13753;SDS011;6948;51.216;6.778;2022-07-23T08:23:34;30.37;;;27.40;;
13753;SDS011;6948;51.216;6.778;2022-07-23T08:26:00;29.67;;;26.67;;
13753;SDS011;6948;51.216;6.778;2022-07-23T08:28:26;28.10;;;25.20;;
13753;SDS011;6948;51.216;6.778;2022-07-23T08:30:52;24.73;;;21.63;;
13753;SDS011;6948;51.216;6.778;2022-07-23T08:33:18;24.30;;;17.13;;
13753;SDS011;6948;51.216;6.778;2022-07-23T08:35:45;23.07;;;16.37;;
13753;SDS011;6948;51.216;6.778;2022-07-23T08:38:12;22.47;;;15.73;;
13753;SDS011;6948;51.216;6.778;2022-07-23T08:40:40;19.30;;;16.27;;
13753;SDS011;6948;51.216;6.778;2022-07-23T08:43:08;20.17;;;15.90;;
13753;SDS011;6948;51.216;6.778;2022-07-23T08:45:36;16.87;;;14.97;;
13753;SDS011;6948;51.216;6.778;2022-07-23T08:48:03;16.50;;;14.17;;
13753;SDS011;6948;51.216;6.778;2022-07-23T08:50:29;18.23;;;14.10;;
13753;SDS011;6948;51.216;6.778;2022-07-23T08:52:55;16.20;;;13.50;;
13753;SDS011;6948;51.216;6.778;2022-07-23T08:55:23;15.80;;;12.07;;
13753;SDS011;6948;51.216;6.778;2022-07-23T08:57:50;14.53;;;11.60;;
13753;SDS011;6948;51.216;6.778;2022-07-23T09:00:16;14.77;;;12.80;;
13753;SDS011;6948;51.216;6.778;2022-07-23T09:02:42;16.97;;;11.03;;
13753;SDS011;6948;51.216;6.778;2022-07-23T09:05:09;12.17;;;10.23;;
13753;SDS011;6948;51.216;6.778;2022-07-23T09:07:36;14.13;;;9.67;;
13753;SDS011;6948;51.216;6.778;2022-07-23T09:10:05;13.93;;;9.77;;
13753;SDS011;6948;51.216;6.778;2022-07-23T09:12:31;12.10;;;9.73;;
13753;SDS011;6948;51.216;6.778;2022-07-23T09:14:57;13.17;;;8.97;;
13753;SDS011;6948;51.216;6.778;2022-07-23T09:17:29;12.30;;;9.20;;
13753;SDS011;6948;51.216;6.778;2022-07-23T09:20:09;15.97;;;10.27;;
13753;SDS011;6948;51.216;6.778;2022-07-23T09:22:36;10.83;;;8.80;;
13753;SDS011;6948;51.216;6.778;2022-07-23T09:25:07;11.30;;;9.03;;
13753;SDS011;6948;51.216;6.778;2022-07-23T09:27:50;11.73;;;8.37;;
13753;SDS011;6948;51.216;6.778;2022-07-23T09:30:18;10.63;;;7.70;;
13753;SDS011;6948;51.216;6.778;2022-07-23T09:32:44;10.67;;;7.50;;
13753;SDS011;6948;51.216;6.778;2022-07-23T09:35:10;8.70;;;7.47;;
13753;SDS011;6948;51.216;6.778;2022-07-23T09:37:36;8.47;;;7.43;;
13753;SDS011;6948;51.216;6.778;2022-07-23T09:40:06;10.20;;;6.77;;
13753;SDS011;6948;51.216;6.778;2022-07-23T09:42:33;8.00;;;5.93;;
13753;SDS011;6948;51.216;6.778;2022-07-23T09:44:59;9.67;;;6.60;;
13753;SDS011;6948;51.216;6.778;2022-07-23T09:47:26;8.77;;;6.17;;
13753;SDS011;6948;51.216;6.778;2022-07-23T09:50:09;9.77;;;6.90;;
13753;SDS011;6948;51.216;6.778;2022-07-23T09:55:17;8.40;;;6.53;;
13753;SDS011;6948;51.216;6.778;2022-07-23T09:57:44;9.37;;;6.10;;
13753;SDS011;6948;51.216;6.778;2022-07-23T10:00:12;10.57;;;5.53;;
13753;SDS011;6948;51.216;6.778;2022-07-23T10:02:38;7.17;;;5.30;;
13753;SDS011;6948;51.216;6.778;2022-07-23T10:05:05;7.53;;;5.10;;
13753;SDS011;6948;51.216;6.778;2022-07-23T10:07:32;7.97;;;5.10;;
13753;SDS011;6948;51.216;6.778;2022-07-23T10:09:59;5.93;;;5.07;;
13753;SDS011;6948;51.216;6.778;2022-07-23T10:12:26;6.30;;;5.07;;
13753;SDS011;6948;51.216;6.778;2022-07-23T10:15:03;8.17;;;5.13;;
13753;SDS011;6948;51.216;6.778;2022-07-23T10:17:31;5.97;;;4.73;;
13753;SDS011;6948;51.216;6.778;2022-07-23T10:19:57;8.73;;;5.50;;
13753;SDS011;6948;51.216;6.778;2022-07-23T10:22:24;5.43;;;4.83;;
13753;SDS011;6948;51.216;6.778;2022-07-23T10:24:53;6.20;;;4.43;;
13753;SDS011;6948;51.216;6.778;2022-07-23T10:30:02;6.17;;;4.07;;
13753;SDS011;6948;51.216;6.778;2022-07-23T10:35:21;5.63;;;3.87;;
13753;SDS011;6948;51.216;6.778;2022-07-23T10:37:49;8.97;;;4.70;;
13753;SDS011;6948;51.216;6.778;2022-07-23T10:40:16;7.43;;;4.43;;
13753;SDS011;6948;51.216;6.778;2022-07-23T10:42:43;7.60;;;4.60;;
13753;SDS011;6948;51.216;6.778;2022-07-23T10:47:55;7.33;;;4.30;;
13753;SDS011;6948;51.216;6.778;2022-07-23T10:55:44;5.10;;;4.07;;
13753;SDS011;6948;51.216;6.778;2022-07-23T10:58:10;8.53;;;5.70;;
13753;SDS011;6948;51.216;6.778;2022-07-23T11:00:36;6.90;;;4.80;;
13753;SDS011;6948;51.216;6.778;2022-07-23T11:03:05;7.23;;;4.47;;
13753;SDS011;6948;51.216;6.778;2022-07-23T11:05:47;9.93;;;4.30;;
13753;SDS011;6948;51.216;6.778;2022-07-23T11:08:15;11.23;;;4.57;;
13753;SDS011;6948;51.216;6.778;2022-07-23T11:10:46;7.73;;;5.03;;
13753;SDS011;6948;51.216;6.778;2022-07-23T11:13:28;6.40;;;4.80;;
13753;SDS011;6948;51.216;6.778;2022-07-23T11:16:12;7.43;;;4.97;;
13753;SDS011;6948;51.216;6.778;2022-07-23T11:21:58;7.43;;;4.43;;
13753;SDS011;6948;51.216;6.778;2022-07-23T11:24:04;6.73;;;4.80;;
13753;SDS011;6948;51.216;6.778;2022-07-23T11:26:49;6.53;;;4.37;;
13753;SDS011;6948;51.216;6.778;2022-07-23T11:32:08;8.90;;;4.97;;
13753;SDS011;6948;51.216;6.778;2022-07-23T11:34:44;5.93;;;4.33;;
13753;SDS011;6948;51.216;6.778;2022-07-23T11:37:13;7.77;;;5.00;;
13753;SDS011;6948;51.216;6.778;2022-07-23T11:39:54;6.30;;;4.70;;
13753;SDS011;6948;51.216;6.778;2022-07-23T11:42:20;6.90;;;4.77;;
13753;SDS011;6948;51.216;6.778;2022-07-23T11:44:46;6.40;;;5.13;;
13753;SDS011;6948;51.216;6.778;2022-07-23T11:47:13;7.77;;;5.20;;
13753;SDS011;6948;51.216;6.778;2022-07-23T11:49:41;8.03;;;4.60;;
13753;SDS011;6948;51.216;6.778;2022-07-23T11:52:17;7.67;;;4.60;;
13753;SDS011;6948;51.216;6.778;2022-07-23T11:57:28;6.73;;;4.33;;
13753;SDS011;6948;51.216;6.778;2022-07-23T11:59:56;7.47;;;4.30;;
13753;SDS011;6948;51.216;6.778;2022-07-23T12:02:22;6.00;;;3.63;;
13753;SDS011;6948;51.216;6.778;2022-07-23T12:04:49;5.03;;;3.00;;
13753;SDS011;6948;51.216;6.778;2022-07-23T12:10:00;4.37;;;2.83;;
13753;SDS011;6948;51.216;6.778;2022-07-23T12:12:26;4.80;;;3.53;;
13753;SDS011;6948;51.216;6.778;2022-07-23T12:14:55;4.83;;;3.70;;
13753;SDS011;6948;51.216;6.778;2022-07-23T12:17:21;5.77;;;3.77;;
13753;SDS011;6948;51.216;6.778;2022-07-23T12:19:53;5.60;;;3.67;;
13753;SDS011;6948;51.216;6.778;2022-07-23T12:22:19;5.93;;;3.77;;
13753;SDS011;6948;51.216;6.778;2022-07-23T12:25:03;7.23;;;3.63;;
13753;SDS011;6948;51.216;6.778;2022-07-23T12:27:30;5.77;;;3.87;;
13753;SDS011;6948;51.216;6.778;2022-07-23T12:29:56;5.37;;;3.90;;
13753;SDS011;6948;51.216;6.778;2022-07-23T12:32:23;5.37;;;3.20;;
13753;SDS011;6948;51.216;6.778;2022-07-23T12:35:00;5.27;;;3.87;;
13753;SDS011;6948;51.216;6.778;2022-07-23T12:37:28;4.63;;;3.90;;
13753;SDS011;6948;51.216;6.778;2022-07-23T12:39:55;5.60;;;4.50;;
13753;SDS011;6948;51.216;6.778;2022-07-23T12:42:21;8.00;;;4.07;;
13753;SDS011;6948;51.216;6.778;2022-07-23T12:45:05;7.43;;;4.10;;
13753;SDS011;6948;51.216;6.778;2022-07-23T12:47:49;4.57;;;3.47;;
13753;SDS011;6948;51.216;6.778;2022-07-23T12:53:03;5.73;;;4.03;;
13753;SDS011;6948;51.216;6.778;2022-07-23T12:55:30;3.45;;;2.75;;
13753;SDS011;6948;51.216;6.778;2022-07-23T12:58:04;3.85;;;2.50;;
13753;SDS011;6948;51.216;6.778;2022-07-23T13:00:31;3.73;;;2.80;;
13753;SDS011;6948;51.216;6.778;2022-07-23T13:02:58;4.30;;;2.40;;
13753;SDS011;6948;51.216;6.778;2022-07-23T13:05:24;4.37;;;2.50;;
13753;SDS011;6948;51.216;6.778;2022-07-23T13:07:50;4.03;;;2.70;;
13753;SDS011;6948;51.216;6.778;2022-07-23T13:10:16;4.73;;;2.43;;
13753;SDS011;6948;51.216;6.778;2022-07-23T13:12:42;3.97;;;2.30;;
13753;SDS011;6948;51.216;6.778;2022-07-23T13:15:08;4.07;;;2.67;;
13753;SDS011;6948;51.216;6.778;2022-07-23T13:17:34;3.63;;;2.70;;
13753;SDS011;6948;51.216;6.778;2022-07-23T13:20:00;4.30;;;2.73;;
13753;SDS011;6948;51.216;6.778;2022-07-23T13:22:27;3.30;;;2.70;;
13753;SDS011;6948;51.216;6.778;2022-07-23T13:24:53;4.13;;;2.80;;
13753;SDS011;6948;51.216;6.778;2022-07-23T13:27:19;4.25;;;2.83;;
13753;SDS011;6948;51.216;6.778;2022-07-23T13:29:45;3.67;;;2.90;;
13753;SDS011;6948;51.216;6.778;2022-07-23T13:32:12;3.70;;;3.00;;
13753;SDS011;6948;51.216;6.778;2022-07-23T13:34:38;5.15;;;2.83;;
13753;SDS011;6948;51.216;6.778;2022-07-23T13:37:04;3.63;;;2.50;;
13753;SDS011;6948;51.216;6.778;2022-07-23T13:39:30;6.30;;;2.63;;
13753;SDS011;6948;51.216;6.778;2022-07-23T13:41:56;2.60;;;2.40;;
13753;SDS011;6948;51.216;6.778;2022-07-23T13:44:22;3.85;;;2.28;;
13753;SDS011;6948;51.216;6.778;2022-07-23T13:46:49;3.42;;;2.50;;
13753;SDS011;6948;51.216;6.778;2022-07-23T13:49:15;2.65;;;2.17;;
13753;SDS011;6948;51.216;6.778;2022-07-23T13:51:41;4.03;;;2.33;;
13753;SDS011;6948;51.216;6.778;2022-07-23T13:54:07;3.65;;;2.70;;
13753;SDS011;6948;51.216;6.778;2022-07-23T13:56:33;2.83;;;2.30;;
13753;SDS011;6948;51.216;6.778;2022-07-23T13:58:59;6.18;;;2.33;;
13753;SDS011;6948;51.216;6.778;2022-07-23T14:01:25;3.60;;;2.22;;
13753;SDS011;6948;51.216;6.778;2022-07-23T14:03:51;3.35;;;2.22;;
13753;SDS011;6948;51.216;6.778;2022-07-23T14:06:17;5.90;;;2.40;;
13753;SDS011;6948;51.216;6.778;2022-07-23T14:08:44;5.18;;;2.20;;
13753;SDS011;6948;51.216;6.778;2022-07-23T14:11:10;2.97;;;2.28;;
13753;SDS011;6948;51.216;6.778;2022-07-23T14:13:36;3.33;;;2.30;;
13753;SDS011;6948;51.216;6.778;2022-07-23T14:16:02;4.78;;;2.47;;
13753;SDS011;6948;51.216;6.778;2022-07-23T14:18:28;3.78;;;2.20;;
13753;SDS011;6948;51.216;6.778;2022-07-23T14:20:54;4.47;;;2.30;;
13753;SDS011;6948;51.216;6.778;2022-07-23T14:23:20;3.13;;;2.50;;
13753;SDS011;6948;51.216;6.778;2022-07-23T14:25:46;4.07;;;2.45;;
13753;SDS011;6948;51.216;6.778;2022-07-23T14:28:12;2.83;;;2.25;;
13753;SDS011;6948;51.216;6.778;2022-07-23T14:30:38;2.75;;;2.35;;
13753;SDS011;6948;51.216;6.778;2022-07-23T14:33:05;3.63;;;2.47;;
13753;SDS011;6948;51.216;6.778;2022-07-23T14:35:31;3.42;;;2.58;;
13753;SDS011;6948;51.216;6.778;2022-07-23T14:37:57;2.58;;;2.38;;
13753;SDS011;6948;51.216;6.778;2022-07-23T14:40:23;3.17;;;2.45;;
13753;SDS011;6948;51.216;6.778;2022-07-23T14:42:50;3.63;;;2.30;;
13753;SDS011;6948;51.216;6.778;2022-07-23T14:45:16;3.35;;;2.40;;
13753;SDS011;6948;51.216;6.778;2022-07-23T14:47:42;3.03;;;2.40;;
13753;SDS011;6948;51.216;6.778;2022-07-23T14:50:08;3.63;;;2.50;;
13753;SDS011;6948;51.216;6.778;2022-07-23T14:52:34;2.60;;;2.30;;
13753;SDS011;6948;51.216;6.778;2022-07-23T14:55:00;3.65;;;2.40;;
13753;SDS011;6948;51.216;6.778;2022-07-23T14:57:26;3.92;;;2.40;;
13753;SDS011;6948;51.216;6.778;2022-07-23T14:59:53;3.72;;;2.55;;
13753;SDS011;6948;51.216;6.778;2022-07-23T15:02:19;3.13;;;2.42;;
13753;SDS011;6948;51.216;6.778;2022-07-23T15:04:45;2.80;;;2.38;;
13753;SDS011;6948;51.216;6.778;2022-07-23T15:07:11;2.53;;;2.20;;
13753;SDS011;6948;51.216;6.778;2022-07-23T15:09:37;6.03;;;2.33;;
13753;SDS011;6948;51.216;6.778;2022-07-23T15:12:03;5.13;;;2.65;;